Time;durP1;ratioP1;P1;durP2;ratioP2;P2;SDS_P1;SDS_P2;PMS_P1;PMS_P2;Temp;Humidity;BMP_temperature;BMP_pressure;BME280_temperature;BME280_humidity;BME280_pressure;Samples;Min_cycle;Max_cycle;Signal;HPM_P1;HPM_P2
2022/04/05 00:01:19;;;;;;;3.30;2.85;;;7.30;39.30;;;;;;5112127;28;34106;-77
2022/04/05 00:03:45;;;;;;;3.83;2.85;;;7.30;39.10;;;;;;5091631;28;35761;-77
2022/04/05 00:06:11;;;;;;;3.60;3.28;;;7.30;38.70;;;;;;5076799;28;34155;-76
2022/04/05 00:08:37;;;;;;;3.70;3.00;;;7.30;40.50;;;;;;5110059;28;34105;-75
2022/04/05 00:11:03;;;;;;;4.53;3.28;;;7.20;38.70;;;;;;5092487;28;33997;-77
2022/04/05 00:13:28;;;;;;;4.00;3.53;;;7.20;39.20;;;;;;5110869;27;34044;-76
2022/04/05 00:15:54;;;;;;;3.58;3.00;;;7.20;38.70;;;;;;5091984;28;33994;-75
2022/04/05 00:18:20;;;;;;;3.47;2.97;;;7.20;41.50;;;;;;5093792;28;34284;-76
2022/04/05 00:20:46;;;;;;;3.80;2.65;;;7.20;39.20;;;;;;5072591;28;34099;-76
2022/04/05 00:23:12;;;;;;;3.28;2.97;;;7.20;39.70;;;;;;5073956;28;36134;-75
2022/04/05 00:25:38;;;;;;;3.53;3.22;;;7.20;39.20;;;;;;5091221;28;34233;-75
2022/04/05 00:28:04;;;;;;;3.33;2.72;;;7.20;39.20;;;;;;5092764;28;34287;-76
2022/04/05 00:30:30;;;;;;;3.50;3.15;;;7.20;39.50;;;;;;5093014;28;34352;-76
2022/04/05 00:32:56;;;;;;;3.10;2.80;;;7.20;39.00;;;;;;5090603;28;35965;-78
2022/04/05 00:35:23;;;;;;;3.35;2.80;;;7.20;40.60;;;;;;5092098;28;34399;-76
2022/04/05 00:37:50;;;;;;;2.75;2.55;;;7.20;39.60;;;;;;5090480;28;34088;-77
2022/04/05 00:40:16;;;;;;;2.85;2.58;;;7.20;40.70;;;;;;5110047;28;34026;-76
2022/04/05 00:42:42;;;;;;;3.10;2.80;;;7.20;42.70;;;;;;5092181;28;36413;-76
2022/04/05 00:45:09;;;;;;;2.95;2.53;;;7.20;39.60;;;;;;5075665;28;34173;-75
2022/04/05 00:47:36;;;;;;;3.83;2.72;;;7.20;44.30;;;;;;5059012;28;34244;-77
2022/04/05 00:50:05;;;;;;;2.72;2.53;;;7.20;41.10;;;;;;5090528;28;34095;-78
2022/04/05 00:52:31;;;;;;;4.80;2.85;;;7.20;40.00;;;;;;5058415;28;35903;-76
2022/04/05 00:54:59;;;;;;;2.90;2.63;;;7.20;41.40;;;;;;5090275;28;34308;-77
2022/04/05 00:57:44;;;;;;;3.67;2.90;;;7.20;41.00;;;;;;5093630;28;34356;-78
2022/04/05 01:00:10;;;;;;;3.40;3.03;;;7.10;39.70;;;;;;5111524;28;34339;-76
2022/04/05 01:02:38;;;;;;;3.08;2.85;;;7.20;40.20;;;;;;5058690;27;36795;-76
2022/04/05 01:05:05;;;;;;;3.13;2.83;;;7.20;40.60;;;;;;5092586;28;34279;-76
2022/04/05 01:07:32;;;;;;;3.50;2.90;;;7.10;40.60;;;;;;5073500;28;34011;-76
2022/04/05 01:09:59;;;;;;;3.50;3.17;;;7.10;39.70;;;;;;5091479;28;34544;-76
2022/04/05 01:12:25;;;;;;;3.25;2.95;;;7.20;39.90;;;;;;5090972;28;36249;-77
2022/04/05 01:14:52;;;;;;;3.83;3.08;;;7.20;41.30;;;;;;5108052;28;34118;-76
2022/04/05 01:17:19;;;;;;;3.28;2.70;;;7.20;40.20;;;;;;5092234;28;34077;-76
2022/04/05 01:19:47;;;;;;;3.10;2.80;;;7.10;42.10;;;;;;5091492;28;34146;-76
2022/04/05 01:22:13;;;;;;;3.20;2.90;;;7.20;40.40;;;;;;5090417;28;36336;-77
2022/04/05 01:24:39;;;;;;;3.55;2.80;;;7.20;41.30;;;;;;5092506;28;34348;-76
2022/04/05 01:27:06;;;;;;;3.28;2.92;;;7.20;40.50;;;;;;5091236;28;34372;-76
2022/04/05 01:29:33;;;;;;;3.53;3.22;;;7.20;39.80;;;;;;5090628;28;34496;-77
2022/04/05 01:32:02;;;;;;;3.55;3.17;;;7.20;40.00;;;;;;5110799;28;35149;-75
2022/04/05 01:34:31;;;;;;;3.88;3.47;;;7.20;40.40;;;;;;5110017;28;34467;-76
2022/04/05 01:36:59;;;;;;;3.38;2.83;;;7.20;40.30;;;;;;5091264;28;34285;-76
2022/04/05 01:39:27;;;;;;;3.45;3.15;;;7.20;42.20;;;;;;5091422;28;34049;-77
2022/04/05 01:41:56;;;;;;;3.65;3.20;;;7.20;41.60;;;;;;5058541;28;35727;-76
2022/04/05 01:44:22;;;;;;;3.55;3.17;;;7.20;40.10;;;;;;5089999;28;34468;-76
2022/04/05 01:46:49;;;;;;;3.35;3.05;;;7.20;40.00;;;;;;5107899;28;34026;-75
2022/04/05 01:49:15;;;;;;;3.63;3.15;;;7.20;40.30;;;;;;5090373;28;34191;-79
2022/04/05 01:51:43;;;;;;;3.40;3.10;;;7.20;40.20;;;;;;5091522;28;35871;-77
2022/04/05 01:54:10;;;;;;;3.38;2.92;;;7.20;40.20;;;;;;5091588;28;34158;-78
2022/04/05 01:56:48;;;;;;;4.18;3.00;;;7.20;40.80;;;;;;5075257;28;34186;-76
2022/04/05 01:59:17;;;;;;;4.60;3.70;;;7.20;41.30;;;;;;5091180;28;34212;-76
2022/04/05 02:01:43;;;;;;;3.90;3.50;;;7.20;40.30;;;;;;5074867;28;34492;-76
2022/04/05 02:04:10;;;;;;;3.45;2.92;;;7.20;40.20;;;;;;5091928;28;34001;-77
2022/04/05 02:06:37;;;;;;;3.70;3.28;;;7.20;40.10;;;;;;5110820;28;34173;-75
2022/04/05 02:09:04;;;;;;;4.18;3.42;;;7.20;40.70;;;;;;5092264;28;34351;-77
2022/04/05 02:11:30;;;;;;;3.58;2.80;;;7.20;40.80;;;;;;5091736;28;36305;-76
2022/04/05 02:13:56;;;;;;;3.90;3.38;;;7.10;41.10;;;;;;5110929;28;34098;-76
2022/04/05 02:16:22;;;;;;;4.75;3.78;;;7.20;40.40;;;;;;5091158;28;34039;-76
2022/04/05 02:18:48;;;;;;;4.38;3.47;;;7.20;41.90;;;;;;5089643;28;34072;-76
2022/04/05 02:21:14;;;;;;;3.97;3.58;;;7.20;40.90;;;;;;5091503;28;36645;-75
2022/04/05 02:23:40;;;;;;;4.03;3.30;;;7.10;41.50;;;;;;5091523;28;34540;-76
2022/04/05 02:26:06;;;;;;;3.78;3.35;;;7.10;40.70;;;;;;5091349;28;34418;-75
2022/04/05 02:28:32;;;;;;;3.88;3.53;;;7.10;41.30;;;;;;5108534;28;34270;-76
2022/04/05 02:30:58;;;;;;;3.42;2.92;;;7.10;41.10;;;;;;5090046;28;35494;-79
2022/04/05 02:33:24;;;;;;;5.15;3.35;;;7.20;42.20;;;;;;5058380;28;34514;-76
2022/04/05 02:35:51;;;;;;;4.43;3.50;;;7.10;41.80;;;;;;5110480;28;34147;-77
2022/04/05 02:38:18;;;;;;;3.88;3.42;;;7.20;41.20;;;;;;5074241;28;34134;-77
2022/04/05 02:40:43;;;;;;;3.83;3.20;;;7.20;41.00;;;;;;5091080;28;36122;-76
2022/04/05 02:43:10;;;;;;;4.07;3.67;;;7.20;42.90;;;;;;5075506;28;34102;-77
2022/04/05 02:45:35;;;;;;;4.65;3.53;;;7.20;41.20;;;;;;5108973;28;34181;-77
2022/04/05 02:48:02;;;;;;;4.00;3.40;;;7.10;42.30;;;;;;5092020;28;33856;-77
2022/04/05 02:50:28;;;;;;;4.75;3.80;;;7.20;42.10;;;;;;5078034;28;36477;-76
2022/04/05 02:52:55;;;;;;;4.45;3.75;;;7.20;41.40;;;;;;5095771;28;34127;-76
2022/04/05 02:55:21;;;;;;;4.00;3.60;;;7.20;41.60;;;;;;5114544;28;34250;-76
2022/04/05 02:57:48;;;;;;;3.83;3.45;;;7.20;41.30;;;;;;5094897;28;34236;-78
2022/04/05 03:00:15;;;;;;;4.00;3.60;;;7.20;41.60;;;;;;5095149;28;35570;-75
2022/04/05 03:02:42;;;;;;;6.13;3.60;;;7.20;41.80;;;;;;5095158;28;34178;-75
2022/04/05 03:05:09;;;;;;;4.32;3.80;;;7.20;41.50;;;;;;5077472;28;34050;-76
2022/04/05 03:07:37;;;;;;;3.45;3.15;;;7.20;41.40;;;;;;5093562;28;34140;-76
2022/04/05 03:10:07;;;;;;;4.07;3.33;;;7.20;41.80;;;;;;5092826;28;35825;-76
2022/04/05 03:12:35;;;;;;;5.80;3.40;;;7.20;42.80;;;;;;5093901;28;34056;-76
2022/04/05 03:15:02;;;;;;;4.43;2.97;;;7.20;41.90;;;;;;5093240;28;34114;-75
2022/04/05 03:17:28;;;;;;;4.28;3.58;;;7.20;43.30;;;;;;5111616;28;34181;-76
2022/04/05 03:19:54;;;;;;;4.38;3.78;;;7.20;42.00;;;;;;5076925;28;35549;-77
2022/04/05 03:22:20;;;;;;;3.30;2.95;;;7.20;42.10;;;;;;5093569;28;34306;-75
2022/04/05 03:24:46;;;;;;;3.88;3.10;;;7.20;41.50;;;;;;5094576;28;34072;-76
2022/04/05 03:27:12;;;;;;;3.65;3.35;;;7.20;42.80;;;;;;5094668;28;34175;-75
2022/04/05 03:29:39;;;;;;;3.70;3.38;;;7.20;41.60;;;;;;5094512;27;35835;-80
2022/04/05 03:32:05;;;;;;;3.83;3.42;;;7.20;41.50;;;;;;5114261;28;33598;-76
2022/04/05 03:34:31;;;;;;;5.30;3.25;;;7.20;42.00;;;;;;5096216;28;34141;-76
2022/04/05 03:36:57;;;;;;;3.47;3.00;;;7.30;43.60;;;;;;5094636;28;34532;-77
2022/04/05 03:39:23;;;;;;;3.40;3.10;;;7.30;42.30;;;;;;5092241;28;36407;-76
2022/04/05 03:41:49;;;;;;;3.15;2.85;;;7.30;41.90;;;;;;5091948;28;34219;-77
2022/04/05 03:44:16;;;;;;;3.58;2.92;;;7.30;42.30;;;;;;5093220;28;34449;-78
2022/04/05 03:46:42;;;;;;;3.85;3.25;;;7.30;42.70;;;;;;5093248;28;34505;-77
2022/04/05 03:49:08;;;;;;;3.53;3.22;;;7.30;41.90;;;;;;5093171;28;35631;-77
2022/04/05 03:51:34;;;;;;;3.58;2.72;;;7.30;43.10;;;;;;5093936;28;34001;-78
2022/04/05 03:54:00;;;;;;;3.35;2.75;;;7.30;42.60;;;;;;5077719;28;34121;-77
2022/04/05 03:56:26;;;;;;;4.45;2.83;;;7.30;43.70;;;;;;5112465;28;34229;-76
2022/04/05 03:58:52;;;;;;;3.03;2.72;;;7.20;42.80;;;;;;5092551;28;36626;-77
2022/04/05 04:01:18;;;;;;;3.10;2.80;;;7.30;42.40;;;;;;5092945;28;34387;-76
2022/04/05 04:03:44;;;;;;;2.95;2.63;;;7.30;42.40;;;;;;5110204;28;34208;-76
2022/04/05 04:06:10;;;;;;;2.85;2.65;;;7.30;42.70;;;;;;5110671;28;34203;-75
2022/04/05 04:08:36;;;;;;;2.92;2.60;;;7.30;42.60;;;;;;5094121;27;35637;-77
2022/04/05 04:11:02;;;;;;;2.90;2.60;;;7.30;44.10;;;;;;5113314;28;34097;-77
2022/04/05 04:13:28;;;;;;;3.00;2.70;;;7.30;42.80;;;;;;5077724;28;34284;-77
2022/04/05 04:15:56;;;;;;;3.65;2.80;;;7.30;42.70;;;;;;5078239;28;34091;-77
2022/04/05 04:18:22;;;;;;;2.80;2.60;;;7.30;42.80;;;;;;5093952;28;36494;-75
2022/04/05 04:20:48;;;;;;;3.00;2.70;;;7.30;44.40;;;;;;5094252;28;34236;-76
2022/04/05 04:23:15;;;;;;;2.95;2.50;;;7.30;42.80;;;;;;5112986;28;34230;-76
2022/04/05 04:25:41;;;;;;;3.50;3.05;;;7.30;43.20;;;;;;5059885;28;33948;-76
2022/04/05 04:28:09;;;;;;;4.05;2.85;;;7.40;43.20;;;;;;5075860;28;35602;-76
2022/04/05 04:30:37;;;;;;;2.83;2.50;;;7.40;43.00;;;;;;5058046;28;34347;-76
2022/04/05 04:33:04;;;;;;;3.30;2.50;;;7.40;42.80;;;;;;5058886;28;33929;-76
2022/04/05 04:35:30;;;;;;;2.85;2.55;;;7.40;44.40;;;;;;5111128;28;34353;-76
2022/04/05 04:37:57;;;;;;;3.13;2.83;;;7.40;43.10;;;;;;5075110;28;35807;-75
2022/04/05 04:40:23;;;;;;;3.25;2.97;;;7.40;42.90;;;;;;5092622;28;34095;-76
2022/04/05 04:42:49;;;;;;;2.75;2.28;;;7.40;42.70;;;;;;5091477;27;33959;-75
2022/04/05 04:45:15;;;;;;;3.28;2.97;;;7.40;42.80;;;;;;5090785;28;33905;-76
2022/04/05 04:47:41;;;;;;;3.40;2.75;;;7.40;42.80;;;;;;5090680;28;36696;-76
2022/04/05 04:50:10;;;;;;;2.75;2.53;;;7.50;43.30;;;;;;5112287;28;34031;-76
2022/04/05 04:52:37;;;;;;;2.97;2.58;;;7.50;44.40;;;;;;5073929;28;34085;-76
2022/04/05 04:55:04;;;;;;;2.63;2.42;;;7.50;43.10;;;;;;5092216;28;33800;-76
2022/04/05 04:57:30;;;;;;;3.20;2.90;;;7.50;43.70;;;;;;5091261;28;35953;-77
2022/04/05 04:59:56;;;;;;;3.22;2.92;;;7.50;43.30;;;;;;5091606;28;34182;-76
2022/04/05 05:02:23;;;;;;;3.42;2.97;;;7.50;43.40;;;;;;5088976;28;34161;-76
2022/04/05 05:04:50;;;;;;;3.13;2.83;;;7.50;43.30;;;;;;5074333;28;34143;-77
2022/04/05 05:07:16;;;;;;;3.42;3.13;;;7.50;43.40;;;;;;5075549;28;35997;-76
2022/04/05 05:09:42;;;;;;;3.00;2.72;;;7.50;43.30;;;;;;5092185;28;34290;-76
2022/04/05 05:12:10;;;;;;;4.15;3.25;;;7.60;43.00;;;;;;5107283;27;34085;-77
2022/04/05 05:14:37;;;;;;;3.40;2.88;;;7.60;42.80;;;;;;5091991;28;33839;-77
2022/04/05 05:17:03;;;;;;;3.65;2.80;;;7.60;43.10;;;;;;5107224;28;35555;-76
2022/04/05 05:19:29;;;;;;;3.22;2.92;;;7.60;43.50;;;;;;5111833;28;34197;-77
2022/04/05 05:21:55;;;;;;;3.50;3.10;;;7.60;43.60;;;;;;5111616;28;34213;-76
2022/04/05 05:24:21;;;;;;;3.35;3.05;;;7.60;43.40;;;;;;5076038;28;34214;-76
2022/04/05 05:26:48;;;;;;;3.17;2.85;;;7.60;43.40;;;;;;5056821;28;35889;-76
2022/04/05 05:29:15;;;;;;;3.20;2.83;;;7.60;46.20;;;;;;5075180;28;34043;-77
2022/04/05 05:31:41;;;;;;;2.75;2.55;;;7.60;43.70;;;;;;5092657;28;34250;-78
2022/04/05 05:34:07;;;;;;;3.45;3.00;;;7.60;43.50;;;;;;5091073;28;34029;-76
2022/04/05 05:36:33;;;;;;;3.20;2.85;;;7.60;44.70;;;;;;5092365;28;35601;-76
2022/04/05 05:38:59;;;;;;;4.45;2.88;;;7.60;45.50;;;;;;5091684;28;34124;-77
2022/04/05 05:41:25;;;;;;;4.18;3.20;;;7.60;45.70;;;;;;5092210;28;34456;-78
2022/04/05 05:43:51;;;;;;;3.05;2.50;;;7.60;44.70;;;;;;5093091;28;34223;-77
2022/04/05 05:46:17;;;;;;;2.97;2.72;;;7.60;45.30;;;;;;5074884;28;35906;-76
2022/04/05 05:48:43;;;;;;;2.75;2.53;;;7.60;46.00;;;;;;5091527;28;34306;-77
2022/04/05 05:51:09;;;;;;;3.10;2.80;;;7.60;45.80;;;;;;5109280;28;34008;-76
2022/04/05 05:53:35;;;;;;;2.85;2.55;;;7.70;45.30;;;;;;5088896;28;33993;-76
2022/04/05 05:56:02;;;;;;;2.80;2.53;;;7.70;45.20;;;;;;5074143;28;35530;-76
2022/04/05 05:58:28;;;;;;;2.70;2.50;;;7.70;45.20;;;;;;5087888;28;34019;-76
2022/04/05 06:00:54;;;;;;;2.33;2.13;;;7.70;45.60;;;;;;5070480;28;34113;-76
2022/04/05 06:03:20;;;;;;;3.08;2.72;;;7.70;45.20;;;;;;5088834;28;34179;-77
2022/04/05 06:05:46;;;;;;;2.75;2.55;;;7.70;45.60;;;;;;5105683;28;34846;-76
2022/04/05 06:08:13;;;;;;;3.28;2.75;;;7.70;45.10;;;;;;5089418;28;34293;-76
2022/04/05 06:10:40;;;;;;;2.42;2.22;;;7.80;45.20;;;;;;5107192;28;34380;-77
2022/04/05 06:13:07;;;;;;;2.38;2.13;;;7.80;45.70;;;;;;5091710;28;33982;-76
2022/04/05 06:15:33;;;;;;;2.63;2.42;;;7.80;45.60;;;;;;5088710;28;35902;-76
2022/04/05 06:17:59;;;;;;;3.53;2.72;;;7.80;45.20;;;;;;5087356;28;34154;-76
2022/04/05 06:20:27;;;;;;;3.15;2.80;;;7.80;45.40;;;;;;5090530;28;34159;-77
2022/04/05 06:22:57;;;;;;;2.47;2.28;;;7.90;45.10;;;;;;5089312;28;34116;-76
2022/04/05 06:25:29;;;;;;;2.78;2.20;;;7.90;45.80;;;;;;5072773;28;35585;-76
2022/04/05 06:27:56;;;;;;;2.50;2.30;;;7.90;46.20;;;;;;5089165;28;34287;-76
2022/04/05 06:30:22;;;;;;;2.97;2.13;;;7.90;45.30;;;;;;5090072;28;34394;-77
2022/04/05 06:33:11;;;;;;;2.47;2.28;;;8.00;45.30;;;;;;5071762;28;34494;-76
2022/04/05 06:35:40;;;;;;;1.77;1.67;;;8.00;49.30;;;;;;5088867;28;36610;-76
2022/04/05 06:38:07;;;;;;;1.88;1.77;;;8.00;45.80;;;;;;5089709;28;34060;-77
2022/04/05 06:40:34;;;;;;;2.22;2.03;;;8.00;45.10;;;;;;5089298;28;34061;-76
2022/04/05 06:43:01;;;;;;;2.05;1.85;;;8.10;45.60;;;;;;5106880;28;34220;-77
2022/04/05 06:45:27;;;;;;;2.33;2.13;;;8.10;45.30;;;;;;5105686;27;36272;-76
2022/04/05 06:47:54;;;;;;;2.25;2.05;;;8.10;45.30;;;;;;5093583;27;33761;-76
2022/04/05 06:50:24;;;;;;;1.85;1.75;;;8.10;45.30;;;;;;5106905;27;34181;-76
2022/04/05 06:52:54;;;;;;;2.25;2.05;;;8.10;45.10;;;;;;5093979;27;34499;-78
2022/04/05 06:55:20;;;;;;;2.20;2.00;;;8.20;45.80;;;;;;5111256;27;34300;-76
2022/04/05 06:57:47;;;;;;;1.70;1.60;;;8.20;45.50;;;;;;5111515;27;33954;-76
2022/04/05 07:00:14;;;;;;;1.70;1.60;;;8.20;45.10;;;;;;5088434;27;34108;-76
2022/04/05 07:02:40;;;;;;;1.92;1.73;;;8.20;45.20;;;;;;5092744;27;34356;-78
2022/04/05 07:05:09;;;;;;;1.77;1.67;;;8.30;45.70;;;;;;5106393;28;36393;-77
2022/04/05 07:07:37;;;;;;;1.90;1.80;;;8.30;45.20;;;;;;5100123;27;34018;-77
2022/04/05 07:10:04;;;;;;;2.00;1.90;;;8.30;45.20;;;;;;5108925;28;34414;-78
2022/04/05 07:12:31;;;;;;;1.55;1.45;;;8.30;45.30;;;;;;5128383;27;34219;-76
2022/04/05 07:14:57;;;;;;;2.47;1.70;;;8.30;45.40;;;;;;5095937;28;35631;-76
2022/04/05 07:17:23;;;;;;;1.80;1.70;;;8.30;45.30;;;;;;5090960;28;34450;-76
2022/04/05 07:19:49;;;;;;;1.65;1.55;;;8.40;45.20;;;;;;5088466;28;34229;-76
2022/04/05 07:22:15;;;;;;;2.83;1.48;;;8.30;45.60;;;;;;5113542;27;34137;-77
2022/04/05 07:24:42;;;;;;;1.50;1.40;;;8.40;45.40;;;;;;5126429;27;34473;-77
2022/04/05 07:27:23;;;;;;;1.55;1.45;;;8.40;45.80;;;;;;5091056;28;34276;-76
2022/04/05 07:29:52;;;;;;;1.75;1.65;;;8.40;45.60;;;;;;5118074;27;35950;-76
2022/04/05 07:32:18;;;;;;;1.88;1.73;;;8.40;45.70;;;;;;5125795;27;34261;-76
2022/04/05 07:34:44;;;;;;;1.55;1.45;;;8.50;45.20;;;;;;5108976;27;34362;-77
2022/04/05 07:37:11;;;;;;;1.83;1.70;;;8.60;45.20;;;;;;5109330;27;34395;-77
2022/04/05 07:39:40;;;;;;;1.90;1.50;;;8.60;45.70;;;;;;5090460;27;34673;-76
2022/04/05 07:42:08;;;;;;;1.65;1.52;;;8.60;45.70;;;;;;5130293;27;34271;-76
2022/04/05 07:44:34;;;;;;;1.67;1.58;;;8.60;45.50;;;;;;5111446;27;34955;-76
2022/04/05 07:47:01;;;;;;;1.83;1.73;;;8.60;45.60;;;;;;5110486;27;34523;-76
2022/04/05 07:49:27;;;;;;;2.70;1.50;;;8.70;45.80;;;;;;5092086;28;34190;-78
2022/04/05 07:51:53;;;;;;;2.00;1.80;;;8.60;45.50;;;;;;5097126;27;34640;-78
2022/04/05 07:54:19;;;;;;;2.35;1.58;;;8.70;45.60;;;;;;5111401;27;35980;-78
2022/04/05 07:56:46;;;;;;;1.50;1.40;;;8.70;46.20;;;;;;5125963;27;34538;-77
2022/04/05 07:59:12;;;;;;;1.50;1.40;;;8.70;46.40;;;;;;5102710;27;34227;-76
2022/04/05 08:01:38;;;;;;;1.95;1.60;;;8.70;47.30;;;;;;5116753;27;34417;-77
2022/04/05 08:04:04;;;;;;;1.35;1.25;;;8.70;45.70;;;;;;5090686;28;35725;-76
2022/04/05 08:06:31;;;;;;;1.50;1.40;;;8.80;46.20;;;;;;5084783;28;34126;-77
2022/04/05 08:08:57;;;;;;;1.98;1.77;;;8.90;45.70;;;;;;5109480;28;34329;-79
2022/04/05 08:11:23;;;;;;;1.73;1.60;;;8.90;45.70;;;;;;5122985;27;34020;-77
2022/04/05 08:13:49;;;;;;;1.67;1.58;;;9.00;46.20;;;;;;5093800;27;36314;-77
2022/04/05 08:16:15;;;;;;;1.23;1.15;;;9.00;45.60;;;;;;5111371;27;34074;-78
2022/04/05 08:18:41;;;;;;;1.70;1.50;;;9.00;45.70;;;;;;5107447;28;34175;-77
2022/04/05 08:21:07;;;;;;;1.42;1.30;;;9.00;45.60;;;;;;5095498;27;34430;-77
2022/04/05 08:23:33;;;;;;;1.70;1.60;;;9.10;45.70;;;;;;5106464;28;36214;-78
2022/04/05 08:25:59;;;;;;;1.20;1.10;;;9.10;46.00;;;;;;5093456;27;34115;-77
2022/04/05 08:28:26;;;;;;;1.23;1.23;;;9.10;46.10;;;;;;5131002;27;34402;-77
2022/04/05 08:30:52;;;;;;;1.30;1.20;;;9.10;45.70;;;;;;5112202;27;34703;-77
2022/04/05 08:33:20;;;;;;;1.30;1.20;;;9.20;45.50;;;;;;5109868;27;35831;-79
2022/04/05 08:35:46;;;;;;;1.02;1.00;;;9.20;46.00;;;;;;5109499;27;34170;-77
2022/04/05 08:38:12;;;;;;;1.40;1.30;;;9.20;45.90;;;;;;5117983;27;34220;-77
2022/04/05 08:40:38;;;;;;;1.45;1.35;;;9.20;45.70;;;;;;5107068;28;33989;-77
2022/04/05 08:43:04;;;;;;;1.70;1.60;;;9.30;45.60;;;;;;5106118;28;36665;-78
2022/04/05 08:45:31;;;;;;;1.60;1.50;;;9.30;45.60;;;;;;5074610;27;34296;-78
2022/04/05 08:47:59;;;;;;;1.30;1.20;;;9.40;45.30;;;;;;5128246;27;34248;-77
2022/04/05 08:50:28;;;;;;;1.77;1.20;;;9.40;45.30;;;;;;5110113;27;34032;-77
2022/04/05 08:52:55;;;;;;;1.27;1.20;;;9.40;45.40;;;;;;5106053;27;35810;-77
2022/04/05 08:55:22;;;;;;;1.38;1.20;;;9.40;45.50;;;;;;5088558;28;34187;-77
2022/04/05 08:57:48;;;;;;;1.52;1.42;;;9.50;45.40;;;;;;5081074;28;34117;-77
2022/04/05 09:00:19;;;;;;;1.45;1.35;;;9.50;45.40;;;;;;5111976;27;34268;-76
2022/04/05 09:02:55;;;;;;;1.30;1.20;;;9.50;45.50;;;;;;5110639;27;36324;-76
2022/04/05 09:05:34;;;;;;;1.20;1.10;;;9.60;46.40;;;;;;5093352;27;34178;-77
2022/04/05 09:08:18;;;;;;;1.73;1.35;;;9.60;46.60;;;;;;5105960;28;34159;-76
2022/04/05 09:10:48;;;;;;;1.23;1.13;;;9.60;48.00;;;;;;5092865;27;34237;-76
2022/04/05 09:13:18;;;;;;;1.63;1.27;;;9.50;45.90;;;;;;5109482;27;36551;-76
2022/04/05 09:15:48;;;;;;;1.50;1.40;;;9.60;45.80;;;;;;5064605;27;34753;-77
2022/04/05 09:21:11;;;;;;;1.33;1.25;;;9.70;45.60;;;;;;5109209;27;34261;-76
2022/04/05 09:23:39;;;;;;;1.83;1.30;;;9.70;45.50;;;;;;5076089;27;35667;-75
2022/04/05 09:26:09;;;;;;;1.33;1.23;;;9.70;45.50;;;;;;5130072;27;34285;-78
2022/04/05 09:28:38;;;;;;;1.60;1.30;;;9.80;45.60;;;;;;5119158;27;34201;-77
2022/04/05 09:31:06;;;;;;;1.40;1.30;;;9.80;46.10;;;;;;5093052;27;34233;-78
2022/04/05 09:36:19;;;;;;;1.42;1.33;;;9.80;45.90;;;;;;5104671;28;34130;-76
2022/04/05 09:38:45;;;;;;;1.70;1.60;;;9.80;45.50;;;;;;5088799;28;34473;-76
2022/04/05 09:41:18;;;;;;;3.33;1.63;;;9.90;47.60;;;;;;5094792;27;34093;-76
2022/04/05 09:44:00;;;;;;;2.10;1.80;;;9.90;46.90;;;;;;5111378;27;35964;-78
2022/04/05 09:46:28;;;;;;;1.70;1.60;;;9.80;49.20;;;;;;5110023;27;34089;-76
2022/04/05 09:49:04;;;;;;;2.60;1.70;;;9.80;45.80;;;;;;5109524;27;34093;-79
2022/04/05 09:51:36;;;;;;;1.98;1.77;;;9.80;49.60;;;;;;5096264;27;34665;-76
2022/04/05 09:54:02;;;;;;;1.45;1.35;;;9.80;46.60;;;;;;5091631;27;35647;-77
2022/04/05 09:56:34;;;;;;;1.63;1.52;;;9.90;48.80;;;;;;5122418;27;34071;-75
2022/04/05 09:59:04;;;;;;;1.75;1.65;;;10.00;46.90;;;;;;5089648;28;33671;-76
2022/04/05 10:01:34;;;;;;;2.42;1.73;;;10.00;46.40;;;;;;5092328;27;34673;-75
2022/04/05 10:04:03;;;;;;;1.83;1.65;;;10.10;46.80;;;;;;5109579;27;34416;-76
2022/04/05 10:06:31;;;;;;;2.22;1.83;;;10.20;46.10;;;;;;5110006;27;34196;-78
2022/04/05 10:08:59;;;;;;;2.22;2.00;;;10.30;46.00;;;;;;5104111;28;34212;-76
2022/04/05 10:11:26;;;;;;;1.80;1.70;;;10.30;46.70;;;;;;5107191;28;34282;-76
2022/04/05 10:13:53;;;;;;;2.10;1.77;;;10.30;46.30;;;;;;5097823;28;36700;-76
2022/04/05 10:16:20;;;;;;;3.45;1.92;;;10.40;46.60;;;;;;5092166;27;34098;-79
2022/04/05 10:18:48;;;;;;;1.90;1.52;;;10.30;46.70;;;;;;5111486;27;34281;-76
2022/04/05 10:21:15;;;;;;;1.80;1.63;;;10.40;46.90;;;;;;5108245;28;34371;-78
2022/04/05 10:23:44;;;;;;;1.60;1.50;;;10.40;46.30;;;;;;5089450;28;35834;-79
2022/04/05 10:26:16;;;;;;;1.73;1.63;;;10.40;47.20;;;;;;5108611;27;34324;-78
2022/04/05 10:28:44;;;;;;;1.80;1.70;;;10.50;46.50;;;;;;5123607;27;34120;-76
2022/04/05 10:31:16;;;;;;;1.92;1.73;;;10.60;47.50;;;;;;5097939;27;34243;-76
2022/04/05 10:34:04;;;;;;;1.73;1.60;;;10.70;46.60;;;;;;5088343;28;36398;-78
2022/04/05 10:36:32;;;;;;;1.60;1.50;;;10.70;48.50;;;;;;5089982;28;34117;-76
2022/04/05 10:39:15;;;;;;;1.90;1.75;;;10.80;47.50;;;;;;5110866;27;34252;-76
2022/04/05 10:41:41;;;;;;;1.77;1.67;;;11.00;47.30;;;;;;5091618;27;34461;-77
2022/04/05 10:44:23;;;;;;;2.08;1.88;;;11.00;45.60;;;;;;5109904;27;35625;-76
2022/04/05 10:46:57;;;;;;;2.58;1.70;;;11.20;47.40;;;;;;5126328;27;34196;-76
2022/04/05 10:49:44;;;;;;;2.20;1.77;;;11.30;46.20;;;;;;5092316;28;34162;-76
2022/04/05 10:52:23;;;;;;;1.77;1.67;;;11.40;47.30;;;;;;5079714;27;34108;-77
2022/04/05 10:54:52;;;;;;;2.00;1.80;;;11.50;45.60;;;;;;5125974;27;34191;-76
2022/04/05 10:57:35;;;;;;;2.50;1.83;;;11.60;44.80;;;;;;5082119;28;34292;-77
2022/04/05 11:00:23;;;;;;;2.20;2.00;;;11.60;47.20;;;;;;5097523;27;34397;-78
2022/04/05 11:03:26;;;;;;;1.95;1.85;;;11.70;44.70;;;;;;5074351;28;34524;-79
2022/04/05 11:06:03;;;;;;;1.90;1.80;;;11.70;46.60;;;;;;5095418;28;35701;-76
2022/04/05 11:08:31;;;;;;;2.47;2.20;;;11.80;45.70;;;;;;5079808;27;34216;-76
2022/04/05 11:11:02;;;;;;;2.05;1.95;;;11.80;44.80;;;;;;5113272;27;34191;-76
2022/04/05 11:13:33;;;;;;;2.15;1.90;;;11.80;44.80;;;;;;5096801;27;34228;-76
2022/04/05 11:16:00;;;;;;;2.03;1.80;;;11.80;44.90;;;;;;5131726;27;34308;-74
2022/04/05 11:18:29;;;;;;;2.45;2.20;;;11.80;44.80;;;;;;5112273;27;34077;-76
2022/04/05 11:20:57;;;;;;;2.50;2.30;;;11.80;44.50;;;;;;5129545;27;34294;-78
2022/04/05 11:23:40;;;;;;;2.67;2.17;;;11.80;44.60;;;;;;5114645;27;34115;-77
2022/04/05 11:26:23;;;;;;;2.53;2.33;;;11.80;46.00;;;;;;5096195;27;36607;-78
2022/04/05 11:28:50;;;;;;;4.40;2.40;;;11.80;46.50;;;;;;5112029;27;34182;-77
2022/04/05 11:31:40;;;;;;;2.00;1.80;;;11.80;44.70;;;;;;5111728;27;33896;-75
2022/04/05 11:34:37;;;;;;;3.10;2.40;;;11.80;46.80;;;;;;5111578;27;34044;-78
2022/04/05 11:37:05;;;;;;;2.40;2.20;;;11.70;46.80;;;;;;5096538;27;35779;-76
2022/04/05 11:39:35;;;;;;;2.70;2.22;;;11.70;44.80;;;;;;5129938;27;34345;-76
2022/04/05 11:42:02;;;;;;;2.65;2.45;;;11.70;45.80;;;;;;5106517;28;34120;-76
2022/04/05 11:44:28;;;;;;;2.55;2.22;;;11.70;45.10;;;;;;5099766;28;34444;-77
2022/04/05 11:46:57;;;;;;;2.22;2.03;;;11.70;44.90;;;;;;5091180;28;35855;-76
2022/04/05 11:49:23;;;;;;;3.72;2.63;;;11.60;46.00;;;;;;5080124;27;34307;-77
2022/04/05 11:51:50;;;;;;;3.90;2.58;;;11.60;45.00;;;;;;5129101;27;34043;-76
2022/04/05 11:54:21;;;;;;;2.95;2.40;;;11.60;45.00;;;;;;5112935;27;34556;-77
2022/04/05 11:56:47;;;;;;;2.47;1.85;;;11.50;45.70;;;;;;5112117;27;34778;-76
2022/04/05 11:59:15;;;;;;;2.60;2.35;;;11.50;45.10;;;;;;5096945;28;34111;-77
2022/04/05 12:01:45;;;;;;;3.20;2.50;;;11.50;45.40;;;;;;5110737;27;34139;-76
2022/04/05 12:04:14;;;;;;;3.40;2.75;;;11.50;45.60;;;;;;5111345;27;34345;-76
2022/04/05 12:06:42;;;;;;;3.08;2.40;;;11.50;45.50;;;;;;5094453;27;35662;-77
2022/04/05 12:09:17;;;;;;;3.78;2.90;;;11.60;45.60;;;;;;5079525;27;34157;-78
2022/04/05 12:11:46;;;;;;;3.30;2.97;;;11.50;46.10;;;;;;5092633;27;34171;-75
2022/04/05 12:14:15;;;;;;;2.60;2.35;;;11.50;45.50;;;;;;5109060;27;34201;-76
2022/04/05 12:16:58;;;;;;;3.38;2.88;;;11.60;45.30;;;;;;5116042;27;34415;-75
2022/04/05 12:19:28;;;;;;;3.58;2.85;;;11.70;47.10;;;;;;5122591;27;34272;-76
2022/04/05 12:21:57;;;;;;;3.75;2.95;;;11.80;45.40;;;;;;5092303;27;34293;-76
2022/04/05 12:24:24;;;;;;;3.25;2.72;;;11.80;45.10;;;;;;5074384;28;34642;-77
2022/04/05 12:26:51;;;;;;;5.38;3.25;;;11.80;45.60;;;;;;5073293;27;35798;-77
2022/04/05 12:29:17;;;;;;;4.32;3.10;;;11.70;45.10;;;;;;5095732;27;34049;-77
2022/04/05 12:31:43;;;;;;;3.55;3.10;;;11.70;45.30;;;;;;5131457;27;34183;-76
2022/04/05 12:34:11;;;;;;;4.05;3.20;;;11.70;46.00;;;;;;5110510;27;34021;-76
2022/04/05 12:36:43;;;;;;;4.40;3.08;;;11.70;45.50;;;;;;5110905;27;35924;-76
2022/04/05 12:39:20;;;;;;;3.88;3.08;;;11.70;45.80;;;;;;5096531;27;33657;-76
2022/04/05 12:41:49;;;;;;;5.00;3.17;;;11.80;47.10;;;;;;5103651;27;34207;-78
2022/04/05 12:44:18;;;;;;;3.30;2.60;;;11.80;46.30;;;;;;5077111;27;34230;-76
2022/04/05 12:46:50;;;;;;;3.78;3.25;;;11.80;45.90;;;;;;5096746;27;34960;-75
2022/04/05 12:49:26;;;;;;;4.15;3.50;;;11.80;46.80;;;;;;5113093;27;34330;-77
2022/04/05 12:51:53;;;;;;;3.85;2.80;;;11.80;47.10;;;;;;5092302;27;34099;-76
2022/04/05 12:54:35;;;;;;;3.05;2.70;;;11.80;45.50;;;;;;5109546;28;34302;-75
2022/04/05 12:57:32;;;;;;;3.05;2.55;;;11.70;49.50;;;;;;5107581;27;35581;-76
2022/04/05 13:00:11;;;;;;;3.28;2.97;;;11.70;47.60;;;;;;5114393;27;34056;-76
2022/04/05 13:02:41;;;;;;;3.92;2.47;;;11.70;47.10;;;;;;5074228;28;34205;-76
2022/04/05 13:07:56;;;;;;;3.30;2.35;;;11.80;46.90;;;;;;5105125;27;34176;-77
2022/04/05 13:10:40;;;;;;;5.32;3.08;;;11.80;47.10;;;;;;5130899;27;34190;-76